Time;durP1;ratioP1;P1;durP2;ratioP2;P2;SDS_P1;SDS_P2;PMS_P1;PMS_P2;Temp;Humidity;BMP_temperature;BMP_pressure;BME280_temperature;BME280_humidity;BME280_pressure;Samples;Min_cycle;Max_cycle;Signal;HPM_P1;HPM_P2
2022/12/20 00:00:22;;;;;;;;;8.00;7.67;;;;;13.15;62.28;101000.09;5040295;28;45390;-64
2022/12/20 00:02:48;;;;;;;;;7.00;7.00;;;;;13.03;62.33;100981.97;5055002;28;45339;-64
2022/12/20 00:05:14;;;;;;;;;8.00;7.33;;;;;13.16;62.45;101013.53;5047842;28;45518;-65
2022/12/20 00:07:39;;;;;;;;;7.67;7.00;;;;;13.06;62.74;100992.75;5054467;28;45640;-65
2022/12/20 00:10:05;;;;;;;;;5.00;5.00;;;;;13.00;62.85;100988.19;5051831;28;57538;-65
2022/12/20 00:12:30;;;;;;;;;7.00;7.00;;;;;13.12;62.25;101000.06;5049080;28;45495;-65
2022/12/20 00:14:56;;;;;;;;;7.67;6.33;;;;;13.14;62.37;101000.97;5046738;28;45409;-64
2022/12/20 00:17:21;;;;;;;;;9.00;8.67;;;;;13.12;62.24;100995.56;5054625;28;56037;-64
2022/12/20 00:19:47;;;;;;;;;10.33;8.67;;;;;13.11;63.06;100995.53;5055740;28;45640;-65
2022/12/20 00:22:12;;;;;;;;;7.33;7.33;;;;;12.99;62.31;100977.44;5051487;28;46512;-65
2022/12/20 00:24:37;;;;;;;;;10.00;7.33;;;;;12.89;62.64;100962.94;5055259;28;45492;-65
2022/12/20 00:27:03;;;;;;;;;8.00;7.67;;;;;12.88;62.26;100953.97;5042067;28;46561;-66
2022/12/20 00:29:28;;;;;;;;;12.67;7.67;;;;;12.99;62.12;100969.38;5050834;28;46150;-64
2022/12/20 00:31:53;;;;;;;;;7.00;7.00;;;;;12.89;62.79;100955.78;5055100;28;45646;-64
2022/12/20 00:34:19;;;;;;;;;6.67;5.00;;;;;13.04;62.57;100999.88;5055529;28;45598;-65
2022/12/20 00:36:45;;;;;;;;;9.00;8.00;;;;;12.93;62.35;100980.88;5055132;28;46574;-66
2022/12/20 00:39:10;;;;;;;;;11.00;9.33;;;;;12.85;62.69;100961.03;5037365;28;45529;-65
2022/12/20 00:41:35;;;;;;;;;9.00;8.00;;;;;12.82;62.98;100950.25;5054059;28;45416;-64
2022/12/20 00:44:02;;;;;;;;;6.33;6.33;;;;;12.92;63.29;100965.69;5056219;28;45529;-65
2022/12/20 00:46:28;;;;;;;;;8.33;6.00;;;;;12.86;63.35;100965.53;5042932;28;45673;-65
2022/12/20 00:48:54;;;;;;;;;8.00;5.33;;;;;12.92;62.67;100971.03;5054239;28;45402;-64
2022/12/20 00:51:24;;;;;;;;;11.67;8.00;;;;;12.80;62.60;100950.25;5024571;28;45727;-64
2022/12/20 00:53:49;;;;;;;;;6.00;5.00;;;;;12.87;62.68;100964.69;5025045;28;45438;-66
2022/12/20 00:56:14;;;;;;;;;10.33;8.33;;;;;12.87;62.98;100960.22;5054361;28;46083;-66
2022/12/20 00:58:41;;;;;;;;;10.33;7.00;;;;;12.92;63.13;100973.72;5036670;28;45411;-66
2022/12/20 01:01:16;;;;;;;;;6.33;6.33;;;;;12.87;63.45;100967.38;5048680;28;45414;-64
2022/12/20 01:03:41;;;;;;;;;7.67;7.67;;;;;12.89;62.89;100970.97;5054699;28;45466;-65
2022/12/20 01:06:08;;;;;;;;;7.00;5.67;;;;;12.90;62.68;100973.69;5054759;28;58582;-65
2022/12/20 01:08:33;;;;;;;;;7.00;7.00;;;;;12.87;63.47;100973.63;5055872;28;45311;-65
2022/12/20 01:11:06;;;;;;;;;7.67;6.00;;;;;12.84;63.22;100969.97;5052443;28;45342;-65
2022/12/20 01:13:33;;;;;;;;;7.67;6.00;;;;;12.87;62.89;100964.69;5039145;28;45485;-63
2022/12/20 01:16:11;;;;;;;;;7.00;6.67;;;;;12.95;62.87;100972.88;5037750;28;45477;-64
2022/12/20 01:18:36;;;;;;;;;6.00;6.00;;;;;12.92;62.94;100965.69;5055011;28;45326;-65
2022/12/20 01:21:07;;;;;;;;;7.33;7.33;;;;;12.94;62.65;100971.97;5055128;28;45414;-64
2022/12/20 01:23:33;;;;;;;;;7.33;6.00;;;;;12.89;63.39;100957.56;5054097;28;45648;-64
2022/12/20 01:26:04;;;;;;;;;7.00;6.00;;;;;12.87;62.89;100953.97;5035510;28;46281;-65
2022/12/20 01:28:30;;;;;;;;;7.33;5.33;;;;;12.98;62.42;100972.94;5044540;28;45566;-65
2022/12/20 01:30:56;;;;;;;;;9.33;6.33;;;;;13.01;63.50;100960.47;5052432;28;45489;-66
2022/12/20 01:33:22;;;;;;;;;5.00;5.00;;;;;13.01;62.73;100954.22;5054944;28;45569;-64
2022/12/20 01:35:58;;;;;;;;;9.67;7.67;;;;;12.94;63.02;100939.78;5045126;28;47151;-64
2022/12/20 01:38:24;;;;;;;;;8.33;6.67;;;;;13.04;62.96;100943.56;5053188;28;45645;-64
2022/12/20 01:40:49;;;;;;;;;6.33;5.33;;;;;12.98;62.56;100940.75;5052205;28;45359;-64
2022/12/20 01:43:17;;;;;;;;;9.00;9.00;;;;;12.81;62.37;100905.56;5047461;28;45396;-64
2022/12/20 01:45:42;;;;;;;;;7.33;4.67;;;;;13.06;62.95;100963.25;5041004;28;45224;-64
2022/12/20 01:48:09;;;;;;;;;8.67;6.67;;;;;13.05;63.16;100954.31;5035928;28;45725;-65
2022/12/20 01:50:35;;;;;;;;;7.67;6.33;;;;;12.97;62.73;100934.50;5054877;28;45409;-65
2022/12/20 01:53:03;;;;;;;;;4.00;4.00;;;;;12.94;62.98;100933.53;5055203;28;45395;-65
2022/12/20 01:55:29;;;;;;;;;9.00;4.00;;;;;13.05;62.89;100951.63;5054234;28;46572;-66
2022/12/20 01:58:02;;;;;;;;;10.33;6.67;;;;;13.05;62.70;100948.03;5054661;28;45421;-64
2022/12/20 02:00:29;;;;;;;;;5.00;5.00;;;;;13.05;62.94;100951.63;5042549;28;45463;-64
2022/12/20 02:02:58;;;;;;;;;6.33;6.00;;;;;13.05;63.16;100948.97;5054012;28;45312;-65
2022/12/20 02:05:23;;;;;;;;;5.67;5.67;;;;;13.06;63.16;100948.06;5053340;28;46242;-65
2022/12/20 02:07:51;;;;;;;;;9.00;7.00;;;;;12.99;62.94;100935.41;5051489;28;45568;-65
2022/12/20 02:10:21;;;;;;;;;8.67;7.00;;;;;13.01;63.21;100941.72;5034489;28;45548;-66
2022/12/20 02:12:47;;;;;;;;;5.67;4.00;;;;;13.00;62.16;100941.69;5049414;28;45450;-66
2022/12/20 02:15:37;;;;;;;;;5.33;5.33;;;;;13.06;63.30;100963.25;5058580;28;46522;-65
2022/12/20 02:18:19;;;;;;;;;10.00;5.00;;;;;13.08;62.36;100965.13;5053561;28;45512;-64
2022/12/20 02:20:57;;;;;;;;;8.00;6.00;;;;;12.95;62.47;100938.00;5052411;28;45535;-66
2022/12/20 02:23:32;;;;;;;;;6.00;6.00;;;;;13.05;61.69;100964.13;5050104;28;45914;-65
2022/12/20 02:26:38;;;;;;;;;6.00;6.00;;;;;13.08;62.66;100978.53;5055032;28;45634;-65
2022/12/20 02:29:25;;;;;;;;;6.67;6.67;;;;;12.97;62.59;100952.34;4963751;28;45641;-66
2022/12/20 02:31:59;;;;;;;;;3.67;3.67;;;;;12.60;62.34;100888.16;5053193;28;45813;-64
2022/12/20 02:34:25;;;;;;;;;5.67;5.00;;;;;12.90;62.83;100928.09;5034289;28;45500;-65
2022/12/20 02:36:51;;;;;;;;;4.00;4.00;;;;;13.05;62.10;100950.72;5033862;28;46542;-65
2022/12/20 02:39:17;;;;;;;;;12.00;5.00;;;;;12.93;62.22;100942.44;5037740;28;45785;-66
2022/12/20 02:41:53;;;;;;;;;4.33;4.00;;;;;12.87;62.19;100924.47;5039604;28;45430;-64
2022/12/20 02:47:14;;;;;;;;;5.33;5.33;;;;;12.89;62.52;100928.97;5048310;28;45487;-65
2022/12/20 02:49:43;;;;;;;;;7.33;5.00;;;;;12.83;63.22;100919.91;5045871;28;45498;-65
2022/12/20 02:52:12;;;;;;;;;6.00;5.00;;;;;12.80;62.09;100928.81;5053524;28;45434;-64
2022/12/20 02:54:38;;;;;;;;;7.00;7.00;;;;;12.82;62.93;100927.06;5054398;28;45725;-65
2022/12/20 02:57:27;;;;;;;;;6.00;4.67;;;;;12.83;62.57;100903.81;5052753;28;46495;-65
2022/12/20 02:59:53;;;;;;;;;6.00;6.00;;;;;12.83;62.22;100906.50;5050812;28;45496;-66
2022/12/20 03:02:18;;;;;;;;;5.67;5.67;;;;;12.80;62.88;100902.00;5038107;28;45359;-66
2022/12/20 03:04:46;;;;;;;;;3.67;3.67;;;;;12.79;63.05;100910.00;5054975;28;45593;-66
2022/12/20 03:07:13;;;;;;;;;4.67;3.00;;;;;12.72;62.38;100890.22;5045343;28;46717;-66
2022/12/20 03:09:40;;;;;;;;;6.00;6.00;;;;;12.77;62.74;100895.63;5052717;28;45468;-66
2022/12/20 03:12:07;;;;;;;;;4.33;4.33;;;;;12.70;62.81;100890.19;5052341;28;45578;-64
2022/12/20 03:14:33;;;;;;;;;6.33;6.33;;;;;12.72;61.87;100890.22;5040390;28;45370;-66
2022/12/20 03:16:58;;;;;;;;;5.67;5.00;;;;;12.63;63.13;100868.56;5042384;28;45537;-67
2022/12/20 03:19:23;;;;;;;;;4.33;4.00;;;;;12.61;62.39;100873.91;5048936;28;45623;-65
2022/12/20 03:21:49;;;;;;;;;5.00;4.00;;;;;12.67;62.98;100908.88;5049226;28;45431;-65
2022/12/20 03:24:15;;;;;;;;;6.33;4.67;;;;;12.66;62.69;100911.53;5052426;28;45599;-65
2022/12/20 03:26:42;;;;;;;;;8.33;6.00;;;;;12.65;62.08;100901.66;5035572;28;45446;-65
2022/12/20 03:29:08;;;;;;;;;6.00;6.00;;;;;12.52;62.74;100882.66;5054864;28;45386;-66
2022/12/20 03:31:33;;;;;;;;;7.33;6.00;;;;;12.52;62.50;100874.63;5046242;28;45383;-66
2022/12/20 03:33:59;;;;;;;;;6.67;6.33;;;;;12.60;62.12;100881.91;5040967;28;45403;-65
2022/12/20 03:36:24;;;;;;;;;10.00;5.00;;;;;12.53;62.65;100879.09;5038641;28;47791;-65
2022/12/20 03:38:51;;;;;;;;;7.00;7.00;;;;;12.62;62.06;100881.09;5056558;28;45539;-65
2022/12/20 03:41:16;;;;;;;;;5.33;5.00;;;;;12.64;62.06;100908.81;5057161;28;45425;-64
2022/12/20 03:43:42;;;;;;;;;5.00;5.00;;;;;12.52;62.22;100880.00;5057816;28;45509;-64
2022/12/20 03:46:07;;;;;;;;;8.00;6.00;;;;;12.53;63.08;100881.78;5056625;28;56789;-65
2022/12/20 03:48:32;;;;;;;;;5.00;5.00;;;;;12.57;62.82;100882.72;5052868;28;45335;-65
2022/12/20 03:50:57;;;;;;;;;11.67;5.00;;;;;12.43;61.91;100863.72;5050223;28;45387;-66
2022/12/20 03:53:23;;;;;;;;;5.67;5.67;;;;;12.56;62.48;100872.91;5057395;28;45567;-66
2022/12/20 03:55:48;;;;;;;;;6.00;4.33;;;;;12.68;62.08;100891.91;5056745;28;45418;-65
2022/12/20 03:58:13;;;;;;;;;3.00;3.00;;;;;12.67;61.96;100892.78;5055995;28;45519;-67
2022/12/20 04:00:39;;;;;;;;;4.33;4.00;;;;;12.62;62.45;100878.41;5054680;28;51813;-65
2022/12/20 04:03:05;;;;;;;;;5.67;4.33;;;;;12.64;62.15;100883.78;5045252;28;45427;-66
2022/12/20 04:05:30;;;;;;;;;3.67;3.67;;;;;12.64;61.65;100887.38;5052971;28;58706;-65
2022/12/20 04:07:55;;;;;;;;;5.33;3.33;;;;;12.63;62.31;100874.81;5054726;28;45514;-65
2022/12/20 04:10:21;;;;;;;;;4.67;4.00;;;;;12.64;61.59;100873.06;5060096;28;45386;-65
2022/12/20 04:12:46;;;;;;;;;4.00;4.00;;;;;12.44;61.98;100836.06;5055948;28;45245;-66
2022/12/20 04:15:11;;;;;;;;;4.67;3.00;;;;;12.64;61.86;100857.88;5055462;28;46303;-65
2022/12/20 04:17:37;;;;;;;;;3.00;3.00;;;;;12.66;61.53;100852.56;5056109;28;45394;-65
2022/12/20 04:20:17;;;;;;;;;3.33;3.33;;;;;12.58;61.36;100835.41;5032435;28;45388;-65
2022/12/20 04:22:47;;;;;;;;;5.00;4.67;;;;;12.66;61.43;100853.44;5051383;28;45477;-67
2022/12/20 04:25:13;;;;;;;;;5.00;3.67;;;;;12.65;61.59;100845.38;5029224;28;47693;-65
2022/12/20 04:27:38;;;;;;;;;4.00;4.00;;;;;12.55;61.49;100830.88;5037334;28;45842;-66
2022/12/20 04:30:04;;;;;;;;;3.67;3.00;;;;;12.54;61.94;100827.31;5044817;28;45563;-66
2022/12/20 04:32:29;;;;;;;;;3.00;3.00;;;;;12.65;62.00;100834.66;5054005;28;45587;-65
2022/12/20 04:34:55;;;;;;;;;7.00;5.00;;;;;12.48;61.65;100802.19;5054718;28;45537;-65
2022/12/20 04:37:20;;;;;;;;;4.00;4.00;;;;;12.51;61.22;100813.84;5054263;28;45331;-66
2022/12/20 04:39:45;;;;;;;;;4.00;4.00;;;;;12.28;61.97;100775.00;5045287;28;45700;-66
2022/12/20 04:42:11;;;;;;;;;5.33;4.00;;;;;12.65;61.69;100845.38;5040718;28;45313;-66
2022/12/20 04:44:36;;;;;;;;;4.33;4.00;;;;;12.59;61.64;100831.84;5043717;28;45469;-66
2022/12/20 04:47:02;;;;;;;;;5.67;5.00;;;;;12.35;61.81;100784.94;5054362;28;61156;-66
2022/12/20 04:49:27;;;;;;;;;4.00;3.00;;;;;12.59;60.93;100829.16;5055847;28;45386;-65
2022/12/20 04:51:52;;;;;;;;;7.00;5.00;;;;;12.35;61.24;100793.00;5055669;28;45426;-64
2022/12/20 04:54:18;;;;;;;;;5.67;5.67;;;;;12.63;61.15;100837.31;5054731;28;46851;-66
2022/12/20 04:56:43;;;;;;;;;8.00;6.00;;;;;12.51;61.31;100821.88;5055284;28;46370;-66
2022/12/20 04:59:09;;;;;;;;;9.00;6.00;;;;;12.58;61.11;100828.28;5049999;28;45297;-67
2022/12/20 05:01:35;;;;;;;;;8.67;4.00;;;;;12.67;61.33;100849.91;5035571;28;45607;-66
2022/12/20 05:04:01;;;;;;;;;6.25;6.25;;;;;12.63;61.44;100836.41;5054118;28;45466;-66
2022/12/20 05:06:26;;;;;;;;;3.33;3.33;;;;;12.64;61.15;100843.59;5042653;28;45776;-65
2022/12/20 05:08:51;;;;;;;;;8.67;6.00;;;;;12.47;61.05;100817.38;5048567;28;45825;-66
2022/12/20 05:11:17;;;;;;;;;8.33;7.33;;;;;12.67;61.60;100836.50;5031947;28;45807;-65
2022/12/20 05:13:42;;;;;;;;;9.25;7.75;;;;;12.69;61.70;100831.19;5045605;28;45358;-65
2022/12/20 05:16:07;;;;;;;;;7.67;7.33;;;;;12.70;61.79;100835.63;5051495;28;45304;-66
2022/12/20 05:18:33;;;;;;;;;11.33;5.00;;;;;12.66;61.58;100818.59;5055357;28;45604;-66
2022/12/20 05:26:32;;;;;;;;;6.67;5.67;;;;;12.73;60.91;100822.28;5052350;28;46649;-66
2022/12/20 05:28:57;;;;;;;;;6.00;5.00;;;;;12.72;61.49;100801.75;5034573;28;44935;-65
2022/12/20 05:31:22;;;;;;;;;8.67;8.67;;;;;12.66;61.38;100797.16;5026927;28;45427;-65
2022/12/20 05:33:48;;;;;;;;;8.00;6.33;;;;;12.82;61.44;100818.88;5049737;28;46000;-65
2022/12/20 05:36:13;;;;;;;;;5.00;5.00;;;;;12.84;61.29;100811.78;5041654;28;45484;-67
2022/12/20 05:38:39;;;;;;;;;5.00;5.00;;;;;12.69;60.51;100783.81;5042637;28;45718;-65
2022/12/20 05:41:05;;;;;;;;;8.33;6.67;;;;;12.87;61.27;100814.53;5057538;28;45405;-66
2022/12/20 05:43:31;;;;;;;;;4.67;4.67;;;;;12.78;61.65;100803.63;5052816;28;46621;-66
2022/12/20 05:45:56;;;;;;;;;8.00;7.00;;;;;12.79;61.07;100813.47;5042078;28;45522;-66
2022/12/20 05:48:21;;;;;;;;;3.00;3.00;;;;;12.86;61.37;100821.66;5041263;28;45988;-66
2022/12/20 05:50:47;;;;;;;;;3.00;3.00;;;;;12.81;61.57;100801.00;5055102;28;45634;-66
2022/12/20 05:53:14;;;;;;;;;8.67;5.00;;;;;12.88;60.93;100806.47;5036190;28;47701;-65
2022/12/20 05:55:47;;;;;;;;;4.00;4.00;;;;;12.73;60.90;100768.69;5047306;28;45559;-65
2022/12/20 05:58:13;;;;;;;;;7.67;6.00;;;;;12.84;60.82;100793.91;5034341;28;45392;-65
2022/12/20 06:00:43;;;;;;;;;6.33;4.00;;;;;12.94;61.29;100815.53;5051879;28;45619;-66
2022/12/20 06:03:10;;;;;;;;;5.67;4.00;;;;;12.93;60.67;100817.28;5038807;28;45432;-66
2022/12/20 06:05:36;;;;;;;;;7.00;5.00;;;;;12.90;61.50;100798.47;5034245;28;45421;-66
2022/12/20 06:08:04;;;;;;;;;5.00;3.67;;;;;12.81;60.75;100791.16;5050488;28;45706;-65
2022/12/20 06:10:29;;;;;;;;;7.33;6.00;;;;;12.98;60.85;100806.66;5054453;28;45477;-67
2022/12/20 06:12:54;;;;;;;;;6.00;3.00;;;;;13.00;61.35;100815.63;5038150;28;46702;-66
2022/12/20 06:15:20;;;;;;;;;3.33;3.33;;;;;12.90;61.34;100795.78;5037098;28;45592;-66
2022/12/20 06:17:45;;;;;;;;;5.00;4.00;;;;;12.98;61.49;100799.50;5038824;28;45708;-67
2022/12/20 06:20:11;;;;;;;;;6.00;4.00;;;;;12.93;60.83;100792.25;5035285;28;45296;-65
2022/12/20 06:22:36;;;;;;;;;7.67;4.00;;;;;12.35;60.70;100692.06;5041515;28;45648;-66
2022/12/20 06:25:02;;;;;;;;;5.00;3.00;;;;;13.01;60.41;100801.34;5055486;28;45583;-66
2022/12/20 06:27:27;;;;;;;;;6.67;4.00;;;;;13.08;60.15;100817.59;5053786;28;45730;-67
2022/12/20 06:29:53;;;;;;;;;6.33;5.33;;;;;12.93;60.29;100781.53;5054889;28;45529;-66
2022/12/20 06:32:19;;;;;;;;;5.00;3.67;;;;;13.12;60.77;100812.28;5047722;28;46917;-66
2022/12/20 06:34:44;;;;;;;;;3.33;3.33;;;;;13.04;60.82;100807.66;5034588;28;45428;-66
2022/12/20 06:37:10;;;;;;;;;4.00;4.00;;;;;13.07;60.40;100810.41;5036039;28;45727;-66
2022/12/20 06:39:35;;;;;;;;;4.00;3.00;;;;;13.07;61.18;100802.34;5050425;28;46911;-65
2022/12/20 06:42:01;;;;;;;;;5.33;3.67;;;;;13.15;60.66;100806.94;5052182;28;52148;-65
2022/12/20 06:44:26;;;;;;;;;4.00;2.33;;;;;13.08;61.09;100801.50;5053642;28;45514;-65
2022/12/20 06:46:51;;;;;;;;;6.00;3.00;;;;;13.18;61.24;100801.63;5048994;28;45408;-67
2022/12/20 06:49:17;;;;;;;;;6.33;5.00;;;;;13.18;60.89;100807.91;5047494;28;45835;-66
2022/12/20 06:51:42;;;;;;;;;4.33;3.00;;;;;13.19;60.40;100804.34;5050853;28;60053;-66
2022/12/20 06:54:08;;;;;;;;;2.67;2.67;;;;;13.21;60.40;100807.94;5034738;28;45369;-66
2022/12/20 06:56:33;;;;;;;;;4.67;4.00;;;;;13.21;60.90;100813.31;5061461;28;45287;-67
2022/12/20 06:58:59;;;;;;;;;5.33;5.33;;;;;13.23;60.95;100808.88;5052850;28;45396;-66
2022/12/20 07:01:24;;;;;;;;;3.00;3.00;;;;;13.27;60.48;100812.53;5058033;28;46316;-65
2022/12/20 07:03:49;;;;;;;;;3.00;3.00;;;;;13.16;60.53;100795.34;5030287;28;45630;-66
2022/12/20 07:06:15;;;;;;;;;7.33;4.33;;;;;13.24;60.59;100796.38;5059696;28;47405;-66
2022/12/20 07:08:40;;;;;;;;;4.00;4.00;;;;;13.30;60.43;100811.66;5045707;28;45518;-65
2022/12/20 07:11:06;;;;;;;;;8.00;8.00;;;;;13.26;60.23;100816.06;5052542;28;46321;-66
2022/12/20 07:13:33;;;;;;;;;4.67;4.67;;;;;13.31;60.64;100824.19;5057228;28;45400;-67
2022/12/20 07:15:59;;;;;;;;;8.33;6.67;;;;;13.31;60.70;100817.03;5057213;28;45509;-66
2022/12/20 07:18:25;;;;;;;;;11.67;8.00;;;;;13.32;60.13;100804.56;5055052;28;45690;-66
2022/12/20 07:20:50;;;;;;;;;7.67;6.00;;;;;13.24;60.96;100793.69;5043556;28;45476;-65
2022/12/20 07:23:17;;;;;;;;;7.33;4.00;;;;;13.35;60.05;100815.38;5059925;28;45552;-66
2022/12/20 07:25:43;;;;;;;;;8.67;6.33;;;;;13.36;60.62;100814.47;5056045;28;45680;-66
2022/12/20 07:28:08;;;;;;;;;6.67;6.67;;;;;13.38;60.53;100815.38;5045324;28;45449;-67
2022/12/20 07:30:34;;;;;;;;;5.00;5.00;;;;;13.39;60.61;100811.84;5057480;28;45449;-66
2022/12/20 07:32:59;;;;;;;;;10.75;9.25;;;;;13.37;60.84;100806.44;5059613;28;45464;-66
2022/12/20 07:35:25;;;;;;;;;5.33;5.00;;;;;13.35;60.12;100800.16;5049543;28;45395;-68
2022/12/20 07:37:50;;;;;;;;;8.75;7.75;;;;;13.25;60.72;100774.94;5057368;28;45566;-66
2022/12/20 07:40:16;;;;;;;;;6.00;5.00;;;;;13.42;60.24;100804.72;5054654;28;46799;-66
2022/12/20 07:42:41;;;;;;;;;3.00;3.00;;;;;13.32;60.19;100789.38;5055126;28;46174;-66
2022/12/20 07:45:07;;;;;;;;;13.00;9.33;;;;;13.44;60.84;100815.50;5052113;28;46894;-67
2022/12/20 07:47:34;;;;;;;;;4.67;4.67;;;;;13.44;60.25;100811.03;5052504;28;46095;-64
2022/12/20 07:50:00;;;;;;;;;6.00;3.00;;;;;13.40;60.03;100802.94;5055596;28;45504;-66
2022/12/20 07:52:28;;;;;;;;;7.67;6.67;;;;;13.46;60.62;100816.41;5057970;28;45566;-67
2022/12/20 07:54:58;;;;;;;;;5.67;5.67;;;;;13.27;60.23;100786.59;5051147;28;45498;-62
2022/12/20 07:57:40;;;;;;;;;5.67;4.67;;;;;13.47;59.81;100804.81;5047141;28;45648;-61
2022/12/20 08:00:07;;;;;;;;;10.00;3.33;;;;;13.50;60.54;100817.41;5048802;28;45461;-64
2022/12/20 08:02:40;;;;;;;;;6.00;4.67;;;;;13.51;59.71;100813.81;5041381;28;46383;-61
2022/12/20 08:05:08;;;;;;;;;5.00;5.00;;;;;13.55;59.84;100818.38;5049906;28;45484;-61
2022/12/20 08:07:37;;;;;;;;;9.33;5.00;;;;;13.52;59.84;100811.16;5049166;28;45401;-63
2022/12/20 08:10:05;;;;;;;;;3.33;3.33;;;;;13.56;59.60;100817.47;5032475;28;46055;-64
2022/12/20 08:12:32;;;;;;;;;5.33;4.00;;;;;13.49;59.30;100804.84;5053584;28;45379;-64
2022/12/20 08:14:58;;;;;;;;;7.33;5.00;;;;;13.53;59.41;100817.41;5061868;28;45375;-63
2022/12/20 08:17:23;;;;;;;;;8.33;5.67;;;;;13.53;59.56;100804.91;5051893;28;46121;-64
2022/12/20 08:19:51;;;;;;;;;4.00;4.00;;;;;13.55;59.60;100807.63;5046742;28;45951;-64
2022/12/20 08:22:18;;;;;;;;;7.67;5.00;;;;;13.57;59.72;100819.28;5052000;28;45398;-63
2022/12/20 08:24:43;;;;;;;;;9.67;8.00;;;;;13.44;59.90;100797.59;5052067;28;45476;-62
2022/12/20 08:27:09;;;;;;;;;6.00;6.00;;;;;13.49;59.36;100804.84;5036207;28;45489;-64
2022/12/20 08:29:34;;;;;;;;;6.33;3.67;;;;;13.48;59.59;100805.72;5055178;28;45422;-66
2022/12/20 08:32:00;;;;;;;;;8.67;5.67;;;;;13.55;59.36;100816.56;5036123;28;45526;-67
2022/12/20 08:34:25;;;;;;;;;4.67;4.33;;;;;13.57;59.42;100806.75;5032454;28;45751;-67
2022/12/20 08:36:51;;;;;;;;;8.33;5.00;;;;;13.31;58.98;100768.75;5040822;28;45402;-65
2022/12/20 08:39:16;;;;;;;;;8.33;6.00;;;;;13.56;59.65;100818.38;5036534;28;46324;-68
2022/12/20 08:41:41;;;;;;;;;7.67;6.00;;;;;13.51;59.00;100789.66;5053601;28;45489;-67
2022/12/20 08:44:08;;;;;;;;;5.33;5.33;;;;;13.47;58.54;100777.97;5048588;28;45790;-65
2022/12/20 08:46:33;;;;;;;;;3.33;3.00;;;;;13.60;59.07;100813.97;5045009;28;45608;-65
2022/12/20 08:48:58;;;;;;;;;5.00;5.00;;;;;13.59;59.13;100812.16;5060286;28;45408;-64
2022/12/20 08:51:24;;;;;;;;;5.67;5.33;;;;;13.50;58.70;100786.06;5047780;28;45466;-65
2022/12/20 08:53:50;;;;;;;;;4.33;4.33;;;;;13.61;58.91;100805.00;5059028;28;44987;-70
2022/12/20 08:56:17;;;;;;;;;6.67;5.00;;;;;13.63;59.17;100819.38;5057508;28;45482;-68
2022/12/20 08:58:44;;;;;;;;;7.33;4.33;;;;;13.63;59.02;100817.59;5054171;28;46624;-70
2022/12/20 09:01:12;;;;;;;;;6.33;6.00;;;;;13.60;58.48;100805.91;5050208;28;45454;-68
2022/12/20 09:03:39;;;;;;;;;4.33;4.00;;;;;13.57;58.77;100801.38;5050245;28;47672;-68
2022/12/20 09:06:09;;;;;;;;;3.00;3.00;;;;;13.49;59.30;100792.31;5044090;28;46765;-70
2022/12/20 09:08:36;;;;;;;;;5.67;5.00;;;;;13.63;58.74;100819.38;5053911;28;45465;-69
2022/12/20 09:11:13;;;;;;;;;6.33;5.33;;;;;13.65;59.08;100822.97;5056155;28;45578;-67
2022/12/20 09:13:39;;;;;;;;;4.33;4.33;;;;;13.43;58.76;100790.44;5036537;28;45413;-69
2022/12/20 09:16:06;;;;;;;;;6.67;6.00;;;;;13.62;59.20;100834.56;5028731;28;45526;-68
2022/12/20 09:18:32;;;;;;;;;9.33;8.00;;;;;13.58;59.93;100826.47;5052899;28;46824;-67
2022/12/20 09:21:02;;;;;;;;;6.33;4.00;;;;;13.57;59.96;100833.59;5048492;28;45175;-70
2022/12/20 09:23:29;;;;;;;;;7.33;4.00;;;;;13.53;60.85;100818.34;5062661;28;45537;-69
2022/12/20 09:25:59;;;;;;;;;5.33;5.00;;;;;13.60;60.96;100832.75;5060661;28;46188;-69
2022/12/20 09:28:25;;;;;;;;;11.00;9.00;;;;;13.61;61.01;100837.22;5066937;28;45997;-70
2022/12/20 09:30:50;;;;;;;;;7.00;6.33;;;;;13.61;62.07;100838.16;5042726;28;45561;-70
2022/12/20 09:33:16;;;;;;;;;8.67;4.67;;;;;13.55;61.38;100826.41;5031317;28;45616;-68
2022/12/20 09:35:47;;;;;;;;;5.67;4.00;;;;;13.51;61.98;100819.19;5049846;28;45279;-70
2022/12/20 09:38:13;;;;;;;;;7.00;6.00;;;;;13.61;62.67;100834.53;5034796;28;47442;-70
2022/12/20 09:40:45;;;;;;;;;7.00;5.67;;;;;13.48;62.35;100808.38;5049068;28;45904;-70
2022/12/20 09:43:12;;;;;;;;;5.00;5.00;;;;;13.59;63.22;100831.84;5052735;28;45553;-69
2022/12/20 09:45:37;;;;;;;;;12.67;12.00;;;;;13.56;63.31;100845.22;5034077;28;45347;-70
2022/12/20 09:48:04;;;;;;;;;7.00;6.33;;;;;13.44;63.91;100816.38;5052221;28;46673;-70
2022/12/20 09:50:53;;;;;;;;;5.00;4.33;;;;;13.51;64.46;100827.22;5042935;28;45356;-69
2022/12/20 09:53:33;;;;;;;;;9.33;4.67;;;;;13.49;64.79;100826.31;5018148;28;45777;-70
2022/12/20 09:56:06;;;;;;;;;8.33;6.67;;;;;13.44;65.32;100823.56;5047572;28;45533;-68
2022/12/20 09:59:18;;;;;;;;;5.67;5.00;;;;;13.42;65.93;100825.31;5048543;28;45776;-69
2022/12/20 10:01:49;;;;;;;;;4.00;2.67;;;;;13.34;65.86;100809.09;5040755;28;45690;-67
2022/12/20 10:04:23;;;;;;;;;4.33;4.33;;;;;13.36;67.00;100823.41;5050353;28;46752;-67
2022/12/20 10:07:04;;;;;;;;;7.00;4.67;;;;;13.33;67.62;100825.16;5032215;28;45490;-67
2022/12/20 10:09:48;;;;;;;;;7.33;4.00;;;;;13.32;67.31;100818.91;5052664;28;45580;-65
2022/12/20 10:12:42;;;;;;;;;4.67;4.67;;;;;13.15;67.99;100785.47;5042936;28;45493;-69
2022/12/20 10:15:32;;;;;;;;;4.67;3.33;;;;;13.28;67.47;100815.22;5039217;28;45457;-65
2022/12/20 10:18:32;;;;;;;;;7.33;5.67;;;;;13.26;68.73;100806.25;5049359;28;45496;-72
2022/12/20 10:21:17;;;;;;;;;7.00;6.00;;;;;13.28;68.33;100817.00;5050600;28;45687;-70
2022/12/20 10:23:55;;;;;;;;;6.67;6.67;;;;;13.15;68.51;100791.75;5040076;28;45612;-69
2022/12/20 10:26:21;;;;;;;;;5.33;4.33;;;;;13.09;68.54;100783.59;5047751;28;45518;-72
2022/12/20 10:28:47;;;;;;;;;7.00;6.00;;;;;13.09;67.83;100792.53;5034222;28;45640;-67
2022/12/20 10:31:15;;;;;;;;;7.00;5.67;;;;;13.26;68.19;100818.75;5055385;28;46257;-69
2022/12/20 10:33:41;;;;;;;;;11.00;8.00;;;;;13.00;68.78;100770.94;5040111;28;45702;-67
2022/12/20 10:36:48;;;;;;;;;8.00;7.00;;;;;13.23;68.79;100808.88;5063610;28;45320;-69
2022/12/20 10:39:13;;;;;;;;;8.33;7.00;;;;;13.24;69.20;100797.25;4950718;28;45787;-67
2022/12/20 10:41:39;;;;;;;;;8.67;6.00;;;;;13.23;69.32;100797.22;4953950;28;46056;-69
2022/12/20 10:44:14;;;;;;;;;8.33;6.00;;;;;13.22;69.00;100785.59;4998891;28;45560;-69
2022/12/20 10:46:43;;;;;;;;;7.67;6.33;;;;;13.12;69.68;100767.56;5047258;28;45552;-67
2022/12/20 10:49:36;;;;;;;;;1.00;1.00;;;;;13.18;69.25;100785.53;5048426;28;45520;-68
2022/12/20 10:52:02;;;;;;;;;7.00;5.33;;;;;13.21;69.14;100797.19;5039171;28;46038;-69
2022/12/20 10:54:29;;;;;;;;;12.75;10.75;;;;;13.23;70.02;100808.88;5046385;28;45858;-74
2022/12/20 10:56:58;;;;;;;;;6.33;5.33;;;;;13.17;68.92;100792.69;5051748;28;45595;-72
2022/12/20 10:59:47;;;;;;;;;8.67;7.00;;;;;13.16;68.70;100784.59;5060056;28;45353;-72
2022/12/20 11:02:28;;;;;;;;;11.00;9.00;;;;;13.20;70.27;100790.06;5037529;28;48639;-71
2022/12/20 11:05:14;;;;;;;;;7.67;7.00;;;;;13.15;69.46;100772.06;5044920;28;45237;-68
2022/12/20 11:07:58;;;;;;;;;7.67;7.67;;;;;13.23;69.04;100790.09;5048610;28;45497;-70
2022/12/20 11:10:28;;;;;;;;;6.33;5.00;;;;;13.22;69.92;100788.28;5052044;28;45233;-71
2022/12/20 11:12:56;;;;;;;;;9.67;7.33;;;;;13.21;69.18;100785.59;5046568;28;45427;-70
2022/12/20 11:15:26;;;;;;;;;8.67;8.00;;;;;13.21;69.98;100790.94;5051598;28;45537;-71
2022/12/20 11:18:04;;;;;;;;;13.25;11.25;;;;;13.00;69.70;100756.63;5053472;28;45474;-73
2022/12/20 11:20:46;;;;;;;;;11.00;11.00;;;;;13.15;70.59;100781.03;5045710;28;45542;-72
2022/12/20 11:23:47;;;;;;;;;11.00;11.00;;;;;13.16;70.22;100781.94;5052852;28;45761;-68
2022/12/20 11:26:40;;;;;;;;;10.75;10.50;;;;;13.19;69.51;100782.88;5039409;28;45465;-74
2022/12/20 11:29:40;;;;;;;;;14.25;14.00;;;;;13.17;69.97;100781.94;5048558;28;45307;-68
2022/12/20 11:32:15;;;;;;;;;17.00;17.00;;;;;13.21;69.71;100780.22;5051631;28;45463;-72
2022/12/20 11:35:13;;;;;;;;;24.25;22.50;;;;;13.13;69.28;100760.41;5037532;28;46083;-71
2022/12/20 11:37:55;;;;;;;;;17.50;14.75;;;;;13.20;70.65;100767.66;5045011;28;45716;-72
2022/12/20 11:40:30;;;;;;;;;13.75;12.25;;;;;13.21;70.07;100777.53;5053964;28;45422;-74